Time;durP1;ratioP1;P1;durP2;ratioP2;P2;SDS_P1;SDS_P2;PMS_P1;PMS_P2;Temp;Humidity;BMP_temperature;BMP_pressure;BME280_temperature;BME280_humidity;BME280_pressure;Samples;Min_cycle;Max_cycle;Signal;HPM_P1;HPM_P2
2020/12/10 00:00:51;;;;;;;12.85;8.02;;;1.70;99.90;;;;;;467327;253;28010;-74
2020/12/10 00:02:53;;;;;;;13.13;8.77;;;1.70;99.90;;;;;;467354;253;27616;-74
2020/12/10 00:04:54;;;;;;;13.85;8.13;;;1.80;99.90;;;;;;467394;253;27555;-74
2020/12/10 00:06:55;;;;;;;12.73;7.68;;;1.70;99.90;;;;;;467331;250;27532;-74
2020/12/10 00:08:56;;;;;;;11.25;7.82;;;1.70;99.90;;;;;;467359;253;27619;-74
2020/12/10 00:10:58;;;;;;;14.63;9.52;;;1.70;99.90;;;;;;467320;253;27661;-74
2020/12/10 00:12:59;;;;;;;13.38;8.15;;;1.80;99.90;;;;;;467287;253;27910;-74
2020/12/10 00:15:00;;;;;;;15.50;8.57;;;1.70;99.90;;;;;;467369;253;27659;-74
2020/12/10 00:17:01;;;;;;;12.95;8.50;;;1.70;99.90;;;;;;467366;253;27548;-73
2020/12/10 00:19:03;;;;;;;14.80;9.35;;;1.70;99.90;;;;;;467391;253;28103;-74
2020/12/10 00:21:04;;;;;;;13.45;9.05;;;1.80;99.90;;;;;;467243;253;28408;-74
2020/12/10 00:23:05;;;;;;;16.00;9.70;;;1.80;99.90;;;;;;467499;254;27517;-74
2020/12/10 00:25:06;;;;;;;15.25;9.18;;;1.80;99.90;;;;;;467497;253;27541;-74
2020/12/10 00:27:08;;;;;;;13.85;9.38;;;1.80;99.90;;;;;;467425;253;27552;-74
2020/12/10 00:29:09;;;;;;;15.02;9.43;;;1.70;99.90;;;;;;467358;253;27654;-74
2020/12/10 00:31:10;;;;;;;14.70;9.07;;;1.70;99.90;;;;;;467228;251;27548;-75
2020/12/10 00:33:11;;;;;;;14.40;9.48;;;1.70;99.90;;;;;;467311;253;27505;-74
2020/12/10 00:35:13;;;;;;;18.95;10.05;;;1.70;99.90;;;;;;467277;253;27558;-74
2020/12/10 00:37:14;;;;;;;17.23;10.73;;;1.80;99.90;;;;;;467285;253;28125;-74
2020/12/10 00:39:15;;;;;;;17.73;10.05;;;1.70;99.90;;;;;;467295;253;28157;-74
2020/12/10 00:41:16;;;;;;;15.35;9.95;;;1.70;99.90;;;;;;467306;253;27562;-73
2020/12/10 00:43:18;;;;;;;14.98;10.18;;;1.80;99.90;;;;;;467368;253;27589;-73
2020/12/10 00:45:19;;;;;;;16.83;10.10;;;1.80;99.90;;;;;;467461;253;27619;-74
2020/12/10 00:47:20;;;;;;;15.77;9.93;;;1.80;99.90;;;;;;467482;253;27549;-74
2020/12/10 00:49:22;;;;;;;17.48;9.75;;;1.80;99.90;;;;;;467310;253;27591;-74
2020/12/10 00:51:23;;;;;;;13.90;9.60;;;1.80;99.90;;;;;;467507;253;27544;-74
2020/12/10 00:53:24;;;;;;;14.20;10.15;;;1.80;99.90;;;;;;467510;253;27597;-74
2020/12/10 00:55:25;;;;;;;13.90;9.07;;;1.80;99.90;;;;;;466992;253;27997;-74
2020/12/10 00:57:27;;;;;;;13.00;9.68;;;1.80;99.90;;;;;;467128;253;28105;-74
2020/12/10 00:59:28;;;;;;;17.85;10.23;;;1.70;99.90;;;;;;466921;251;27595;-74
2020/12/10 01:01:29;;;;;;;20.70;11.57;;;1.70;99.90;;;;;;467026;251;27548;-74
2020/12/10 01:03:30;;;;;;;18.98;11.45;;;1.70;99.90;;;;;;467465;253;27593;-74
2020/12/10 01:05:32;;;;;;;18.35;11.60;;;1.70;99.90;;;;;;467322;251;27555;-74
2020/12/10 01:07:33;;;;;;;22.87;12.40;;;1.70;99.90;;;;;;467294;253;27524;-75
2020/12/10 01:09:34;;;;;;;17.73;11.85;;;1.70;99.90;;;;;;467117;254;27636;-73
2020/12/10 01:11:35;;;;;;;17.33;10.10;;;1.70;99.90;;;;;;467273;253;29127;-76
2020/12/10 01:13:37;;;;;;;17.42;10.95;;;1.70;99.90;;;;;;467403;253;27952;-74
2020/12/10 01:15:38;;;;;;;17.55;11.02;;;1.70;99.90;;;;;;467359;254;27576;-74
2020/12/10 01:17:41;;;;;;;17.90;10.23;;;1.70;99.90;;;;;;467358;253;27618;-74
2020/12/10 01:19:40;;;;;;;19.67;12.40;;;1.80;99.90;;;;;;467357;253;27617;-73
2020/12/10 01:21:42;;;;;;;17.12;11.23;;;1.80;99.90;;;;;;467372;253;27548;-74
2020/12/10 01:23:43;;;;;;;21.92;11.57;;;1.80;99.90;;;;;;467323;253;27616;-74
2020/12/10 01:25:44;;;;;;;19.62;11.32;;;1.80;99.90;;;;;;467386;253;27536;-74
2020/12/10 01:27:45;;;;;;;15.60;10.80;;;1.80;99.90;;;;;;467400;253;28002;-75
2020/12/10 01:29:47;;;;;;;18.65;10.95;;;1.70;99.90;;;;;;467402;253;28138;-74
2020/12/10 01:31:48;;;;;;;16.37;10.30;;;1.80;99.90;;;;;;467311;253;27531;-74
2020/12/10 01:33:49;;;;;;;17.90;11.52;;;1.70;99.90;;;;;;467355;254;27639;-74
2020/12/10 01:35:50;;;;;;;19.83;11.18;;;1.70;99.90;;;;;;467330;254;27550;-75
2020/12/10 01:37:52;;;;;;;24.15;12.63;;;1.70;99.90;;;;;;467376;253;27541;-74
2020/12/10 01:39:53;;;;;;;17.90;11.40;;;1.70;99.90;;;;;;467367;253;27537;-74
2020/12/10 01:41:54;;;;;;;21.20;11.55;;;1.80;99.90;;;;;;467361;253;28890;-74
2020/12/10 01:43:55;;;;;;;17.65;10.75;;;1.70;99.90;;;;;;467368;253;28031;-74
2020/12/10 01:45:57;;;;;;;18.23;10.80;;;1.70;99.90;;;;;;467396;253;27532;-74
2020/12/10 01:47:58;;;;;;;15.63;11.02;;;1.60;99.90;;;;;;467117;253;27636;-74
2020/12/10 01:49:59;;;;;;;16.08;10.30;;;1.70;99.90;;;;;;467481;253;27636;-73
2020/12/10 01:52:00;;;;;;;17.70;10.60;;;1.70;99.90;;;;;;467485;254;27503;-74
2020/12/10 01:54:02;;;;;;;18.33;11.43;;;1.70;99.90;;;;;;467454;253;27569;-74
2020/12/10 01:56:03;;;;;;;18.98;11.80;;;1.70;99.90;;;;;;467331;253;27554;-73
2020/12/10 01:58:04;;;;;;;21.83;11.88;;;1.70;99.90;;;;;;467344;253;28032;-74
2020/12/10 02:00:05;;;;;;;21.10;12.50;;;1.70;99.90;;;;;;467344;254;28255;-74
2020/12/10 02:02:07;;;;;;;20.25;11.95;;;1.70;99.90;;;;;;467413;253;27512;-73
2020/12/10 02:04:08;;;;;;;19.05;12.18;;;1.70;99.90;;;;;;467357;253;27553;-74
2020/12/10 02:06:09;;;;;;;23.08;13.75;;;1.70;99.90;;;;;;467379;253;27636;-74
2020/12/10 02:08:10;;;;;;;24.52;13.48;;;1.70;99.90;;;;;;467422;253;27512;-74
2020/12/10 02:10:12;;;;;;;19.95;13.02;;;1.60;99.90;;;;;;467463;253;27668;-75
2020/12/10 02:12:13;;;;;;;20.62;12.90;;;1.60;99.90;;;;;;467486;253;27517;-74
2020/12/10 02:14:14;;;;;;;21.08;12.48;;;1.70;99.90;;;;;;467505;253;28135;-73
2020/12/10 02:16:16;;;;;;;24.23;13.40;;;1.70;99.90;;;;;;467523;254;28107;-74
2020/12/10 02:18:17;;;;;;;23.25;12.75;;;1.70;99.90;;;;;;467525;251;27565;-73
2020/12/10 02:20:18;;;;;;;20.90;12.68;;;1.70;99.90;;;;;;467492;253;27547;-75
2020/12/10 02:22:19;;;;;;;20.23;11.85;;;1.80;99.90;;;;;;467413;253;27545;-74
2020/12/10 02:24:21;;;;;;;20.92;12.05;;;1.70;99.90;;;;;;467569;253;27611;-73
2020/12/10 02:26:22;;;;;;;18.87;12.05;;;1.70;99.90;;;;;;467272;253;27725;-75
2020/12/10 02:28:23;;;;;;;23.08;13.80;;;1.70;99.90;;;;;;467502;253;27950;-74
2020/12/10 02:30:24;;;;;;;24.33;13.43;;;1.70;99.90;;;;;;467237;251;28448;-74
2020/12/10 02:32:26;;;;;;;21.35;12.82;;;1.70;99.90;;;;;;467463;251;27609;-74
2020/12/10 02:34:27;;;;;;;20.42;12.98;;;1.70;99.90;;;;;;467360;251;27564;-74
2020/12/10 02:36:28;;;;;;;26.30;14.23;;;1.60;99.90;;;;;;467366;253;27659;-75
2020/12/10 02:38:29;;;;;;;20.65;12.13;;;1.70;99.90;;;;;;467382;253;27541;-74
2020/12/10 02:40:31;;;;;;;19.40;12.20;;;1.60;99.90;;;;;;467339;253;27627;-78
2020/12/10 02:42:32;;;;;;;23.48;13.40;;;1.70;99.90;;;;;;467367;253;27505;-74
2020/12/10 02:44:33;;;;;;;22.65;13.95;;;1.60;99.90;;;;;;467351;254;28103;-73
2020/12/10 02:46:34;;;;;;;23.83;13.62;;;1.60;99.90;;;;;;467290;253;28414;-74
2020/12/10 02:48:36;;;;;;;25.50;14.48;;;1.70;99.90;;;;;;467242;253;27505;-73
2020/12/10 02:50:37;;;;;;;23.38;14.05;;;1.70;99.90;;;;;;467317;253;27612;-74
2020/12/10 02:52:38;;;;;;;26.33;14.10;;;1.50;99.90;;;;;;467291;254;27980;-74
2020/12/10 02:54:39;;;;;;;20.95;11.93;;;1.60;99.90;;;;;;467324;253;27539;-74
2020/12/10 02:56:42;;;;;;;18.33;11.73;;;1.60;99.90;;;;;;467421;253;27902;-73
2020/12/10 02:58:42;;;;;;;26.08;13.73;;;1.60;99.90;;;;;;467394;254;27604;-74
2020/12/10 03:00:43;;;;;;;20.02;11.70;;;1.70;99.90;;;;;;467335;254;28039;-75
2020/12/10 03:02:44;;;;;;;23.15;14.15;;;1.60;99.90;;;;;;467325;253;28255;-74
2020/12/10 03:04:46;;;;;;;22.45;12.55;;;1.60;99.90;;;;;;467352;253;27532;-75
2020/12/10 03:06:47;;;;;;;20.70;12.52;;;1.60;99.90;;;;;;467369;253;27644;-74
2020/12/10 03:08:48;;;;;;;22.23;13.32;;;1.70;99.90;;;;;;467387;253;28118;-74
2020/12/10 03:10:50;;;;;;;25.37;14.35;;;1.70;99.90;;;;;;467344;254;27559;-76
2020/12/10 03:12:51;;;;;;;23.02;13.73;;;1.70;99.90;;;;;;467370;253;27648;-74
2020/12/10 03:14:52;;;;;;;23.92;13.60;;;1.70;99.90;;;;;;467363;253;27987;-74
2020/12/10 03:16:53;;;;;;;23.15;13.02;;;1.70;99.90;;;;;;467371;254;28861;-74
2020/12/10 03:18:54;;;;;;;20.27;12.30;;;1.70;99.90;;;;;;467382;253;28116;-75
2020/12/10 03:20:56;;;;;;;20.05;12.00;;;1.70;99.90;;;;;;467334;253;27547;-74
2020/12/10 03:22:57;;;;;;;24.10;12.80;;;1.70;99.90;;;;;;467382;253;27541;-74
2020/12/10 03:24:58;;;;;;;22.55;13.18;;;1.70;99.90;;;;;;467364;253;27532;-74
2020/12/10 03:27:00;;;;;;;21.67;12.77;;;1.80;99.90;;;;;;467413;253;28124;-74
2020/12/10 03:29:01;;;;;;;22.85;13.13;;;1.70;99.90;;;;;;467452;253;27558;-74
2020/12/10 03:31:03;;;;;;;19.62;11.82;;;1.70;99.90;;;;;;467456;253;27974;-74
2020/12/10 03:33:03;;;;;;;20.48;12.30;;;1.60;99.90;;;;;;467448;253;28122;-74
2020/12/10 03:35:05;;;;;;;20.65;12.32;;;1.60;99.90;;;;;;467327;253;27551;-74
2020/12/10 03:37:06;;;;;;;21.33;12.85;;;1.60;99.90;;;;;;467331;253;27636;-74
2020/12/10 03:39:07;;;;;;;19.33;12.63;;;1.60;99.90;;;;;;467374;253;27599;-75
2020/12/10 03:41:10;;;;;;;20.33;12.25;;;1.70;99.90;;;;;;467309;253;27541;-74
2020/12/10 03:43:10;;;;;;;28.95;12.37;;;1.60;99.90;;;;;;467341;253;27554;-73
2020/12/10 03:45:11;;;;;;;19.92;12.00;;;1.50;99.90;;;;;;467376;253;27544;-74
2020/12/10 03:47:12;;;;;;;20.98;13.20;;;1.40;99.90;;;;;;467329;253;28055;-74
2020/12/10 03:49:13;;;;;;;20.85;12.45;;;1.50;99.90;;;;;;467255;254;27997;-74
2020/12/10 03:51:15;;;;;;;20.77;11.95;;;1.50;99.90;;;;;;467370;254;27549;-74
2020/12/10 03:53:16;;;;;;;19.15;11.60;;;1.60;99.90;;;;;;467422;254;27531;-73
2020/12/10 03:55:17;;;;;;;18.30;11.77;;;1.60;99.90;;;;;;467452;253;27540;-74
2020/12/10 03:57:18;;;;;;;20.17;12.70;;;1.70;99.90;;;;;;467473;253;27593;-74
2020/12/10 03:59:20;;;;;;;20.45;11.82;;;1.70;99.90;;;;;;467201;254;27531;-73
2020/12/10 04:01:21;;;;;;;17.52;11.25;;;1.70;99.90;;;;;;466692;251;28102;-73
2020/12/10 04:03:22;;;;;;;19.50;11.75;;;1.70;99.90;;;;;;466840;251;28761;-73
2020/12/10 04:05:23;;;;;;;19.02;12.00;;;1.70;99.90;;;;;;467399;251;28013;-75
2020/12/10 04:07:25;;;;;;;23.77;11.95;;;1.70;99.90;;;;;;467426;254;27597;-74
2020/12/10 04:09:26;;;;;;;22.45;11.80;;;1.70;99.90;;;;;;467435;253;27546;-73
2020/12/10 04:11:27;;;;;;;23.70;12.55;;;1.70;99.90;;;;;;467346;254;27548;-74
2020/12/10 04:13:28;;;;;;;20.40;10.82;;;1.70;99.90;;;;;;467391;253;27535;-74
2020/12/10 04:15:30;;;;;;;17.55;10.98;;;1.60;99.90;;;;;;467402;253;27628;-73
2020/12/10 04:17:31;;;;;;;20.33;11.85;;;1.60;99.90;;;;;;467430;253;28769;-74
2020/12/10 04:19:32;;;;;;;19.08;11.55;;;1.70;99.90;;;;;;467325;253;28009;-74
2020/12/10 04:21:33;;;;;;;17.75;11.02;;;1.60;99.90;;;;;;467215;254;27572;-74
2020/12/10 04:23:35;;;;;;;18.80;11.40;;;1.60;99.90;;;;;;467256;254;27531;-74
2020/12/10 04:25:36;;;;;;;21.65;12.37;;;1.60;99.90;;;;;;467283;253;27573;-74
2020/12/10 04:27:37;;;;;;;22.55;10.55;;;1.60;99.90;;;;;;467344;254;28029;-74
2020/12/10 04:29:38;;;;;;;16.83;10.70;;;1.70;99.90;;;;;;467373;254;27563;-73
2020/12/10 04:31:40;;;;;;;21.60;12.23;;;1.70;99.90;;;;;;467303;253;27553;-74
2020/12/10 04:33:41;;;;;;;19.00;11.15;;;1.70;99.90;;;;;;467346;253;28038;-74
2020/12/10 04:35:42;;;;;;;19.33;11.65;;;1.70;99.90;;;;;;467389;253;28428;-74
2020/12/10 04:37:43;;;;;;;19.17;10.77;;;1.70;99.90;;;;;;467378;253;27646;-75
2020/12/10 04:39:45;;;;;;;18.25;11.77;;;1.70;99.90;;;;;;467372;253;27540;-73
2020/12/10 04:41:47;;;;;;;18.08;11.70;;;1.60;99.90;;;;;;467314;253;27640;-74
2020/12/10 04:43:47;;;;;;;16.40;10.75;;;1.70;99.90;;;;;;467416;253;27522;-74
2020/12/10 04:45:49;;;;;;;17.70;11.20;;;1.70;99.90;;;;;;467328;254;27628;-74
2020/12/10 04:47:50;;;;;;;16.17;10.63;;;1.70;99.90;;;;;;467154;253;27574;-74
2020/12/10 04:49:51;;;;;;;16.58;10.57;;;1.70;99.90;;;;;;467316;253;28004;-75
2020/12/10 04:51:52;;;;;;;18.48;10.85;;;1.70;99.90;;;;;;467329;253;28028;-74
2020/12/10 04:53:54;;;;;;;15.23;9.32;;;1.80;99.90;;;;;;467345;253;27539;-75
2020/12/10 04:55:55;;;;;;;17.30;10.05;;;1.80;99.90;;;;;;467357;253;27545;-74
2020/12/10 04:57:56;;;;;;;14.40;9.35;;;1.70;99.90;;;;;;467360;253;27637;-74
2020/12/10 04:59:58;;;;;;;16.83;9.40;;;1.70;99.90;;;;;;467321;254;27974;-74
2020/12/10 05:01:59;;;;;;;13.05;8.70;;;1.70;99.90;;;;;;467424;254;27491;-73
2020/12/10 05:04:00;;;;;;;17.98;10.32;;;1.70;99.90;;;;;;467459;254;27640;-74
2020/12/10 05:06:01;;;;;;;15.95;9.63;;;1.70;99.90;;;;;;467486;254;28056;-74
2020/12/10 05:08:02;;;;;;;17.08;9.70;;;1.80;99.90;;;;;;467401;253;27970;-74
2020/12/10 05:10:04;;;;;;;12.73;8.50;;;1.80;99.90;;;;;;467311;254;28053;-74
2020/12/10 05:12:05;;;;;;;14.23;9.70;;;1.80;99.90;;;;;;467377;253;27514;-74
2020/12/10 05:14:06;;;;;;;17.35;11.50;;;1.80;99.90;;;;;;467383;253;27545;-74
2020/12/10 05:16:07;;;;;;;12.00;8.48;;;1.80;99.90;;;;;;467377;253;27542;-74
2020/12/10 05:18:09;;;;;;;9.85;6.75;;;1.70;99.90;;;;;;467096;253;27639;-74
2020/12/10 05:20:10;;;;;;;10.70;6.60;;;1.70;99.90;;;;;;467322;253;27673;-74
2020/12/10 05:22:11;;;;;;;12.37;8.10;;;1.70;99.90;;;;;;467337;253;27520;-74
2020/12/10 05:24:12;;;;;;;13.38;7.70;;;1.80;99.90;;;;;;467406;253;27632;-74
2020/12/10 05:26:14;;;;;;;12.55;8.75;;;1.80;99.90;;;;;;467387;253;28064;-74
2020/12/10 05:28:15;;;;;;;12.13;8.00;;;1.50;99.90;;;;;;467341;253;28001;-74
2020/12/10 05:30:16;;;;;;;13.45;8.90;;;1.50;99.90;;;;;;467120;251;28131;-74
2020/12/10 05:32:17;;;;;;;13.07;8.52;;;1.60;99.90;;;;;;466954;251;27631;-74
2020/12/10 05:34:19;;;;;;;13.43;8.95;;;1.70;99.90;;;;;;467122;252;27652;-74
2020/12/10 05:36:20;;;;;;;12.88;8.30;;;1.70;99.90;;;;;;467458;253;27631;-74
2020/12/10 05:38:21;;;;;;;12.45;7.53;;;1.70;99.90;;;;;;467509;251;27611;-74
2020/12/10 05:40:22;;;;;;;11.93;7.45;;;1.80;99.90;;;;;;467442;251;27622;-74
2020/12/10 05:42:24;;;;;;;10.85;7.68;;;1.80;99.90;;;;;;467558;253;27497;-74
2020/12/10 05:44:26;;;;;;;10.30;7.03;;;1.80;99.90;;;;;;467409;254;27544;-74
2020/12/10 05:46:26;;;;;;;12.10;7.97;;;1.80;99.90;;;;;;467370;254;28101;-75
2020/12/10 05:48:27;;;;;;;11.38;8.10;;;1.70;99.90;;;;;;467255;253;28214;-74
2020/12/10 05:50:29;;;;;;;10.10;7.70;;;1.70;99.90;;;;;;467366;253;28092;-74
2020/12/10 05:52:30;;;;;;;10.57;7.10;;;1.80;99.90;;;;;;467374;254;27558;-74
2020/12/10 05:54:31;;;;;;;11.90;8.27;;;1.70;99.90;;;;;;467324;253;27721;-74
2020/12/10 05:56:32;;;;;;;16.02;9.40;;;1.70;99.90;;;;;;467301;253;27561;-75
2020/12/10 05:58:34;;;;;;;14.98;9.30;;;1.60;99.90;;;;;;467317;253;27644;-74
2020/12/10 06:00:35;;;;;;;18.08;10.40;;;1.60;99.90;;;;;;467303;253;28172;-74
2020/12/10 06:02:39;;;;;;;15.27;9.90;;;1.60;99.90;;;;;;467342;253;27604;-74
2020/12/10 06:04:37;;;;;;;14.38;9.45;;;1.70;99.90;;;;;;467218;254;28082;-74
2020/12/10 06:06:39;;;;;;;14.25;8.98;;;1.70;99.90;;;;;;467334;253;28043;-75
2020/12/10 06:08:40;;;;;;;11.85;8.30;;;1.70;99.90;;;;;;467333;253;28107;-75
2020/12/10 06:10:41;;;;;;;16.50;8.93;;;1.70;99.90;;;;;;467253;253;27547;-75
2020/12/10 06:12:42;;;;;;;13.27;8.48;;;1.70;99.90;;;;;;467279;253;27557;-74
2020/12/10 06:14:44;;;;;;;13.90;9.15;;;1.80;99.90;;;;;;467323;253;27571;-74
2020/12/10 06:16:45;;;;;;;13.95;9.07;;;1.70;99.90;;;;;;467332;253;27647;-76
2020/12/10 06:18:46;;;;;;;12.45;7.85;;;1.70;99.90;;;;;;467283;253;27559;-75
2020/12/10 06:20:48;;;;;;;11.15;8.00;;;1.80;99.90;;;;;;467302;254;27553;-74
2020/12/10 06:22:49;;;;;;;11.40;7.85;;;1.80;99.90;;;;;;467369;253;27559;-75
2020/12/10 06:24:50;;;;;;;10.70;7.50;;;1.80;99.90;;;;;;467369;253;28080;-75
2020/12/10 06:26:51;;;;;;;11.12;6.40;;;1.80;99.90;;;;;;467425;253;28095;-75
2020/12/10 06:28:52;;;;;;;11.10;7.03;;;1.80;99.90;;;;;;467464;253;28032;-75
2020/12/10 06:30:54;;;;;;;10.68;7.05;;;1.80;99.90;;;;;;467439;253;27507;-75
2020/12/10 06:32:55;;;;;;;8.07;6.40;;;1.80;99.90;;;;;;467337;253;27549;-75
2020/12/10 06:34:57;;;;;;;9.13;6.90;;;1.90;99.90;;;;;;467381;253;27557;-74
2020/12/10 06:36:57;;;;;;;9.38;6.20;;;1.80;99.90;;;;;;467319;253;27540;-74
2020/12/10 06:38:59;;;;;;;8.80;6.35;;;1.80;99.90;;;;;;467357;253;27530;-74
2020/12/10 06:41:00;;;;;;;8.00;6.15;;;1.70;99.90;;;;;;467358;253;27557;-75
2020/12/10 06:43:01;;;;;;;7.85;5.70;;;1.70;99.90;;;;;;467300;253;27552;-74
2020/12/10 06:45:02;;;;;;;9.00;5.50;;;1.80;99.90;;;;;;467344;253;27884;-75
2020/12/10 06:47:04;;;;;;;7.65;5.57;;;1.80;99.90;;;;;;467270;253;27572;-74
2020/12/10 06:49:05;;;;;;;8.70;5.35;;;1.80;99.90;;;;;;467266;254;27552;-74
2020/12/10 06:51:06;;;;;;;6.95;5.45;;;1.70;99.90;;;;;;467344;253;28039;-74
2020/12/10 06:53:07;;;;;;;9.40;6.57;;;1.80;99.90;;;;;;467258;253;28015;-74
2020/12/10 06:55:10;;;;;;;8.30;6.22;;;1.80;99.90;;;;;;467362;253;28046;-74
2020/12/10 06:57:10;;;;;;;7.70;6.22;;;1.80;99.90;;;;;;467236;254;27561;-74
2020/12/10 06:59:11;;;;;;;9.20;6.12;;;1.80;99.90;;;;;;467341;253;27564;-74
2020/12/10 07:01:12;;;;;;;9.68;5.90;;;1.90;99.90;;;;;;467329;253;27511;-74
2020/12/10 07:03:16;;;;;;;11.05;6.93;;;1.90;99.90;;;;;;467218;253;27541;-75
2020/12/10 07:05:15;;;;;;;9.25;6.65;;;1.80;99.90;;;;;;467357;253;27580;-74
2020/12/10 07:07:16;;;;;;;8.38;6.55;;;1.80;99.90;;;;;;467545;254;27556;-75
2020/12/10 07:09:17;;;;;;;8.15;6.07;;;1.80;99.90;;;;;;467548;253;27544;-74
2020/12/10 07:11:19;;;;;;;9.30;6.55;;;1.80;99.90;;;;;;467511;253;27508;-74
2020/12/10 07:13:20;;;;;;;10.30;6.55;;;1.90;99.90;;;;;;467467;253;27632;-75
2020/12/10 07:15:27;;;;;;;7.65;6.20;;;1.90;99.90;;;;;;467515;253;27529;-74
2020/12/10 07:17:22;;;;;;;8.38;5.62;;;1.90;99.90;;;;;;467492;252;27965;-74
2020/12/10 07:19:24;;;;;;;10.20;5.45;;;1.90;99.90;;;;;;467481;254;28029;-75
2020/12/10 07:21:25;;;;;;;8.25;5.70;;;1.90;99.90;;;;;;467409;253;27942;-73
2020/12/10 07:23:26;;;;;;;8.40;5.90;;;1.80;99.90;;;;;;467351;253;27617;-74
2020/12/10 07:25:27;;;;;;;7.30;5.60;;;1.80;99.90;;;;;;467372;253;27540;-74
2020/12/10 07:27:29;;;;;;;9.23;5.37;;;1.70;99.90;;;;;;467388;253;27532;-74
2020/12/10 07:29:30;;;;;;;8.45;5.50;;;1.70;99.90;;;;;;467399;253;27549;-74
2020/12/10 07:31:31;;;;;;;6.82;4.80;;;1.80;99.90;;;;;;467337;253;27500;-74
2020/12/10 07:33:32;;;;;;;6.07;4.72;;;1.80;99.90;;;;;;467338;254;27564;-75
2020/12/10 07:35:34;;;;;;;5.53;4.65;;;1.80;99.90;;;;;;467323;254;27548;-74
2020/12/10 07:37:35;;;;;;;7.60;5.30;;;1.80;99.90;;;;;;467348;253;27551;-74
2020/12/10 07:39:36;;;;;;;6.68;5.12;;;1.80;99.90;;;;;;467333;253;27545;-74
2020/12/10 07:41:38;;;;;;;10.13;5.70;;;1.80;99.90;;;;;;467299;253;27632;-75
2020/12/10 07:43:39;;;;;;;7.68;5.47;;;1.80;99.90;;;;;;467340;253;28048;-74
2020/12/10 07:45:40;;;;;;;9.15;6.43;;;1.80;99.90;;;;;;467339;253;28024;-74
2020/12/10 07:47:41;;;;;;;8.82;6.12;;;1.80;99.90;;;;;;467237;254;27979;-74
2020/12/10 07:49:43;;;;;;;8.15;6.22;;;1.80;99.90;;;;;;467338;253;27539;-74
2020/12/10 07:51:44;;;;;;;8.75;6.12;;;1.80;99.90;;;;;;467298;254;27629;-74
2020/12/10 07:53:45;;;;;;;7.70;5.47;;;1.90;99.90;;;;;;467357;254;27579;-74
2020/12/10 07:55:46;;;;;;;7.47;5.50;;;1.90;99.90;;;;;;467360;253;27556;-75
2020/12/10 07:57:48;;;;;;;9.00;6.45;;;1.90;99.90;;;;;;467328;253;27553;-75
2020/12/10 07:59:49;;;;;;;7.85;5.93;;;1.90;99.90;;;;;;467421;254;27495;-74
2020/12/10 08:01:50;;;;;;;13.07;6.40;;;2.00;99.90;;;;;;467383;253;27563;-74
2020/12/10 08:03:51;;;;;;;7.07;5.60;;;1.90;99.90;;;;;;467356;253;27897;-74
2020/12/10 08:05:53;;;;;;;7.55;5.57;;;1.80;99.90;;;;;;467352;253;27638;-74
2020/12/10 08:07:54;;;;;;;10.50;6.30;;;1.80;99.90;;;;;;467356;253;27557;-73
2020/12/10 08:09:55;;;;;;;6.05;4.70;;;1.90;99.90;;;;;;467328;253;28023;-74
2020/12/10 08:11:56;;;;;;;7.28;5.10;;;1.90;99.90;;;;;;467304;253;28153;-75
2020/12/10 08:13:58;;;;;;;6.45;5.07;;;1.70;99.90;;;;;;467331;253;30025;-74
2020/12/10 08:15:59;;;;;;;7.45;5.68;;;1.30;99.90;;;;;;467305;253;27997;-75
2020/12/10 08:18:00;;;;;;;14.07;9.13;;;1.30;99.90;;;;;;467320;253;27692;-74
2020/12/10 08:20:01;;;;;;;24.05;12.75;;;1.30;99.90;;;;;;467320;253;27514;-75
2020/12/10 08:22:03;;;;;;;18.10;9.90;;;1.50;99.90;;;;;;467362;253;27651;-74
2020/12/10 08:24:04;;;;;;;20.20;10.63;;;1.40;99.90;;;;;;467416;253;27592;-75
2020/12/10 08:26:05;;;;;;;16.27;9.05;;;1.60;99.90;;;;;;467084;252;27540;-74
2020/12/10 08:28:06;;;;;;;12.37;8.32;;;1.70;99.90;;;;;;467125;251;27689;-74
2020/12/10 08:30:10;;;;;;;15.20;9.68;;;1.80;99.90;;;;;;466741;253;27565;-74
2020/12/10 08:32:09;;;;;;;14.87;9.95;;;1.90;99.90;;;;;;467288;253;28016;-74
2020/12/10 08:34:10;;;;;;;26.70;14.73;;;1.90;99.90;;;;;;467508;253;28053;-74
2020/12/10 08:36:11;;;;;;;16.95;9.30;;;1.90;99.90;;;;;;467540;253;27630;-75
2020/12/10 08:38:13;;;;;;;23.73;13.30;;;1.70;99.90;;;;;;467513;253;27640;-75
2020/12/10 08:40:14;;;;;;;8.20;6.25;;;1.40;99.90;;;;;;467449;253;27531;-74
2020/12/10 08:42:18;;;;;;;9.77;7.15;;;1.30;99.90;;;;;;467473;253;27607;-75
2020/12/10 08:44:16;;;;;;;10.98;7.53;;;1.40;99.90;;;;;;467415;253;27620;-74
2020/12/10 08:46:18;;;;;;;13.52;5.85;;;1.60;99.90;;;;;;467369;254;27555;-74
2020/12/10 08:48:19;;;;;;;6.45;5.60;;;1.40;99.90;;;;;;467304;253;27553;-74
2020/12/10 08:50:23;;;;;;;8.07;5.82;;;1.30;99.90;;;;;;467344;253;27544;-74
2020/12/10 08:52:24;;;;;;;15.13;8.25;;;1.30;99.90;;;;;;467405;254;27497;-74
2020/12/10 08:54:26;;;;;;;16.48;9.20;;;1.10;99.90;;;;;;467337;253;27597;-74
2020/12/10 08:56:34;;;;;;;13.15;8.77;;;1.20;99.90;;;;;;467363;253;28740;-74
2020/12/10 08:58:29;;;;;;;8.50;6.07;;;1.20;99.90;;;;;;467373;253;27994;-75
2020/12/10 09:00:29;;;;;;;8.52;6.55;;;1.20;99.90;;;;;;467383;253;28043;-75
2020/12/10 09:02:31;;;;;;;9.45;6.43;;;1.30;99.90;;;;;;467399;254;27546;-74
2020/12/10 09:04:32;;;;;;;9.48;7.00;;;1.30;99.90;;;;;;467392;253;27539;-75
2020/12/10 09:06:33;;;;;;;7.30;5.65;;;1.40;99.90;;;;;;467380;253;27664;-75
2020/12/10 09:08:34;;;;;;;8.10;5.62;;;1.40;99.90;;;;;;467374;253;27528;-74
2020/12/10 09:10:36;;;;;;;7.43;5.85;;;1.50;99.90;;;;;;467329;253;27531;-74
2020/12/10 09:12:37;;;;;;;8.70;6.55;;;1.60;99.90;;;;;;467371;253;27549;-74
2020/12/10 09:14:38;;;;;;;7.03;5.60;;;1.80;99.90;;;;;;467334;253;27565;-75
2020/12/10 09:16:39;;;;;;;8.10;5.68;;;1.90;99.90;;;;;;467389;253;27555;-74
2020/12/10 09:18:41;;;;;;;7.00;5.22;;;2.00;99.90;;;;;;467368;253;27564;-75
2020/12/10 09:20:42;;;;;;;5.65;4.70;;;2.00;99.90;;;;;;467282;253;27603;-74
2020/12/10 09:22:43;;;;;;;6.20;4.72;;;2.00;99.90;;;;;;467362;253;28026;-74
2020/12/10 09:24:44;;;;;;;8.73;5.50;;;2.10;99.90;;;;;;467364;253;29084;-74
2020/12/10 09:26:46;;;;;;;7.32;5.75;;;1.80;99.90;;;;;;467440;253;27942;-74
2020/12/10 09:28:47;;;;;;;9.20;5.95;;;1.60;99.90;;;;;;467469;253;28121;-75
2020/12/10 09:30:48;;;;;;;9.23;5.50;;;1.60;99.90;;;;;;467459;254;27534;-74
2020/12/10 09:32:49;;;;;;;6.70;5.50;;;1.60;99.90;;;;;;467457;253;28013;-75
2020/12/10 09:34:51;;;;;;;7.03;6.00;;;1.70;99.90;;;;;;467373;253;27623;-78
2020/12/10 09:36:52;;;;;;;8.10;5.40;;;1.80;99.90;;;;;;467344;253;27533;-74
2020/12/10 09:38:53;;;;;;;7.20;5.55;;;1.90;99.90;;;;;;467302;254;27921;-75
2020/12/10 09:40:55;;;;;;;9.45;5.68;;;1.90;99.90;;;;;;467333;253;27561;-75
2020/12/10 09:42:56;;;;;;;6.55;5.47;;;1.80;99.90;;;;;;467410;254;27544;-74
2020/12/10 09:44:57;;;;;;;7.22;5.60;;;2.00;99.90;;;;;;467362;253;27570;-75
2020/12/10 09:46:58;;;;;;;6.35;5.28;;;2.20;99.90;;;;;;467384;254;27530;-74
2020/12/10 09:48:59;;;;;;;6.80;5.43;;;2.20;99.90;;;;;;467263;253;27620;-74
2020/12/10 09:51:02;;;;;;;9.35;5.90;;;2.20;99.90;;;;;;467315;253;28961;-74
2020/12/10 09:55:16;;;;;;;8.57;6.22;;;2.40;99.90;;;;;;467366;253;29182;-74
2020/12/10 09:57:20;;;;;;;6.80;6.10;;;2.40;99.90;;;;;;467214;253;27529;-75
2020/12/10 09:59:08;;;;;;;7.10;5.28;;;2.30;99.90;;;;;;467024;253;27500;-75
2020/12/10 10:01:10;;;;;;;7.37;5.18;;;2.30;99.90;;;;;;466979;253;27575;-75
2020/12/10 10:03:11;;;;;;;10.48;5.47;;;2.20;99.90;;;;;;466947;253;27552;-74
2020/12/10 10:05:12;;;;;;;9.23;5.80;;;2.30;99.90;;;;;;467503;253;28013;-74
2020/12/10 10:07:14;;;;;;;8.38;6.35;;;2.20;99.90;;;;;;467378;251;28089;-75
2020/12/10 10:09:15;;;;;;;8.70;5.45;;;2.20;99.90;;;;;;467432;253;27951;-74
2020/12/10 10:11:16;;;;;;;5.82;4.75;;;2.10;99.90;;;;;;467354;251;28033;-76
2020/12/10 10:13:17;;;;;;;8.70;5.60;;;1.90;99.90;;;;;;467337;253;27513;-74
2020/12/10 10:15:18;;;;;;;8.25;5.50;;;2.00;99.90;;;;;;467256;253;27548;-74
2020/12/10 10:17:21;;;;;;;6.03;4.50;;;1.90;99.90;;;;;;467240;254;27544;-75
2020/12/10 10:19:21;;;;;;;6.68;4.93;;;2.00;99.90;;;;;;467263;253;27545;-74
2020/12/10 10:21:28;;;;;;;7.93;5.75;;;2.10;99.90;;;;;;467284;253;27561;-75
2020/12/10 10:23:30;;;;;;;6.45;5.20;;;2.20;99.90;;;;;;467277;253;28073;-74
2020/12/10 10:25:31;;;;;;;10.45;5.75;;;2.30;99.90;;;;;;467270;253;28024;-75
2020/12/10 10:27:32;;;;;;;10.05;6.65;;;2.40;99.90;;;;;;467263;253;27636;-75
2020/12/10 10:29:33;;;;;;;5.93;5.15;;;2.40;99.90;;;;;;467273;253;27530;-75
2020/12/10 10:31:34;;;;;;;8.48;5.43;;;2.40;99.90;;;;;;467288;254;27567;-75